CheckWX is a tool to help pilots better visualize weather data.  It is not intended as a substitute for an official pre-flight weather briefing.

23:43:54 UTC

KFDY TAF
Findlay Airport
Findlay, Ohio, USA
KFDY 182320Z 1900/1924 VRB03KT P6SM FEW150 BKN250 FM191700 15008KT P6SM FEW150 SCT250

Oct-19@
00:00 UTC

Oct-19 @ 00:00 UTC

Oct-19@
17:00 UTC

Oct-19 @ 17:00 UTC

KFDY 182320Z 1900/1924 VRB03KT P6SM FEW150 BKN250
Wind
  • Variable at 3 KTS
Cloud Levels
  • Few at 15,000' AGL
  • Broken at 25,000' AGL

Oct-19@
17:00 UTC

Oct-19 @ 17:00 UTC

Oct-20@
00:00 UTC

Oct-20 @ 00:00 UTC

FM191700 15008KT P6SM FEW150 SCT250

From

From Standard forecast or significant change

Wind
  • 150° at 8 KTS
Cloud Levels
  • Few at 15,000' AGL
  • Scattered at 25,000' AGL